createdAt,value
2018-09-13T00:00:32.427Z,4.50
2018-09-13T00:03:01.112Z,4.43
2018-09-13T00:05:29.664Z,5.00
2018-09-13T00:07:58.260Z,5.10
2018-09-13T00:10:26.852Z,3.90
2018-09-13T00:12:55.449Z,4.17
2018-09-13T00:15:24.039Z,5.07
2018-09-13T00:17:52.655Z,4.97
2018-09-13T00:20:21.272Z,5.10
2018-09-13T00:22:49.989Z,4.50
2018-09-13T00:25:18.615Z,4.83
2018-09-13T00:27:47.202Z,4.70
2018-09-13T00:30:15.886Z,5.10
2018-09-13T00:32:44.453Z,4.87
2018-09-13T00:35:13.064Z,5.13
2018-09-13T00:37:41.683Z,5.87
2018-09-13T00:40:10.285Z,5.47
2018-09-13T00:42:38.978Z,4.50
2018-09-13T00:45:07.601Z,5.10
2018-09-13T00:47:40.516Z,5.30
2018-09-13T00:50:09.132Z,5.10
2018-09-13T00:52:38.952Z,4.60
2018-09-13T00:55:07.537Z,5.50
2018-09-13T00:57:36.656Z,5.00
2018-09-13T01:00:05.556Z,4.80
2018-09-13T01:02:34.566Z,4.63
2018-09-13T01:05:03.220Z,4.13
2018-09-13T01:07:31.860Z,5.10
2018-09-13T01:10:00.459Z,4.13
2018-09-13T01:12:29.097Z,4.87
2018-09-13T01:14:57.751Z,5.40
2018-09-13T01:17:26.369Z,4.80
2018-09-13T01:19:55.077Z,5.40
2018-09-13T01:22:23.726Z,5.77
2018-09-13T01:24:56.095Z,5.70
2018-09-13T01:27:26.420Z,5.50
2018-09-13T01:29:55.127Z,5.60
2018-09-13T01:32:23.937Z,5.50
2018-09-13T01:34:53.263Z,6.27
2018-09-13T01:37:22.026Z,5.60
2018-09-13T01:39:50.650Z,5.70
2018-09-13T01:42:19.244Z,5.73
2018-09-13T01:44:47.918Z,5.50
2018-09-13T01:47:16.535Z,6.10
2018-09-13T01:49:45.141Z,5.37
2018-09-13T01:52:13.759Z,5.10
2018-09-13T01:54:42.354Z,5.80
2018-09-13T01:57:11.006Z,6.17
2018-09-13T01:59:39.664Z,5.87
2018-09-13T02:02:08.299Z,6.03
2018-09-13T02:04:36.893Z,6.10
2018-09-13T02:07:05.551Z,6.17
2018-09-13T02:09:34.206Z,6.03
2018-09-13T02:12:02.851Z,5.80
2018-09-13T02:14:31.491Z,5.97
2018-09-13T02:17:00.151Z,6.07
2018-09-13T02:19:28.780Z,5.77
2018-09-13T02:21:57.395Z,4.73
2018-09-13T02:24:26.060Z,6.60
2018-09-13T02:26:54.747Z,6.10
2018-09-13T02:29:23.346Z,5.53
2018-09-13T02:31:51.953Z,6.30
2018-09-13T02:34:20.587Z,6.37
2018-09-13T02:36:49.228Z,5.87
2018-09-13T02:39:17.842Z,5.97
2018-09-13T02:41:46.530Z,5.73
2018-09-13T02:44:15.256Z,6.47
2018-09-13T02:46:43.891Z,6.10
2018-09-13T02:49:12.603Z,6.87
2018-09-13T02:51:41.237Z,6.30
2018-09-13T02:54:09.894Z,6.93
2018-09-13T02:56:38.542Z,6.60
2018-09-13T02:59:07.348Z,6.93
2018-09-13T03:01:36.008Z,6.90
2018-09-13T03:04:04.675Z,7.60
2018-09-13T03:06:33.347Z,6.97
2018-09-13T03:09:02.052Z,7.90
2018-09-13T03:11:30.683Z,7.70
2018-09-13T03:13:59.328Z,6.83
2018-09-13T03:16:27.932Z,7.43
2018-09-13T03:18:56.658Z,7.03
2018-09-13T03:21:25.295Z,8.03
2018-09-13T03:23:53.932Z,7.10
2018-09-13T03:26:22.529Z,8.80
2018-09-13T03:28:51.351Z,8.33
2018-09-13T03:31:19.968Z,8.27
2018-09-13T03:33:48.684Z,8.40
2018-09-13T03:36:17.332Z,8.20
2018-09-13T03:38:45.946Z,7.70
2018-09-13T03:41:14.636Z,9.37
2018-09-13T03:43:43.292Z,7.70
2018-09-13T03:46:11.905Z,7.90
2018-09-13T03:48:40.548Z,8.70
2018-09-13T03:51:09.250Z,8.03
2018-09-13T03:53:37.905Z,8.10
2018-09-13T03:56:06.610Z,8.77
2018-09-13T03:58:35.289Z,8.37
2018-09-13T04:01:03.932Z,7.97
2018-09-13T04:03:32.662Z,8.80
2018-09-13T04:06:01.525Z,8.27
2018-09-13T04:08:30.192Z,9.30
2018-09-13T04:10:58.834Z,8.30
2018-09-13T04:13:27.569Z,8.10
2018-09-13T04:15:56.163Z,9.00
2018-09-13T04:18:24.810Z,8.40
2018-09-13T04:20:53.478Z,8.17
2018-09-13T04:23:22.148Z,8.60
2018-09-13T04:25:50.856Z,8.80
2018-09-13T04:28:19.522Z,8.37
2018-09-13T04:30:48.147Z,8.40
2018-09-13T04:33:16.845Z,8.60
2018-09-13T04:35:45.565Z,9.20
2018-09-13T04:38:14.140Z,8.87
2018-09-13T04:40:42.757Z,9.17
2018-09-13T04:43:11.561Z,9.00
2018-09-13T04:45:41.433Z,8.73
2018-09-13T04:48:10.128Z,9.60
2018-09-13T04:50:38.803Z,8.50
2018-09-13T04:53:07.442Z,9.27
2018-09-13T04:55:36.205Z,9.00
2018-09-13T04:58:05.003Z,9.00
2018-09-13T05:00:33.623Z,9.70
2018-09-13T05:03:02.232Z,9.10
2018-09-13T05:05:30.807Z,9.70
2018-09-13T05:07:59.389Z,9.83
2018-09-13T05:10:27.964Z,9.20
2018-09-13T05:12:56.614Z,9.17
2018-09-13T05:15:25.211Z,9.80
2018-09-13T05:17:53.825Z,9.20
2018-09-13T05:20:22.438Z,9.57
2018-09-13T05:22:51.044Z,9.50
2018-09-13T05:25:19.758Z,9.50
2018-09-13T05:27:48.332Z,10.60
2018-09-13T05:30:16.949Z,9.50
2018-09-13T05:32:46.660Z,8.80
2018-09-13T05:35:15.262Z,10.67
2018-09-13T05:37:43.880Z,9.77
2018-09-13T05:40:12.477Z,10.80
2018-09-13T05:42:41.084Z,9.20
2018-09-13T05:45:09.722Z,9.83
2018-09-13T05:47:38.327Z,9.63
2018-09-13T05:50:06.963Z,10.10
2018-09-13T05:52:35.571Z,10.80
2018-09-13T05:55:04.270Z,10.33
2018-09-13T05:57:32.851Z,9.60
2018-09-13T06:00:01.535Z,10.67
2018-09-13T06:02:30.228Z,10.27
2018-09-13T06:04:58.887Z,9.90
2018-09-13T06:07:27.500Z,9.87
2018-09-13T06:09:56.258Z,9.90
2018-09-13T06:12:24.951Z,10.77
2018-09-13T06:14:53.596Z,10.87
2018-09-13T06:17:22.361Z,10.60
2018-09-13T06:19:51.103Z,9.70
2018-09-13T06:22:19.722Z,11.40
2018-09-13T06:24:48.419Z,10.40
2018-09-13T06:27:17.034Z,10.53
2018-09-13T06:29:45.702Z,10.47
2018-09-13T06:32:14.330Z,10.17
2018-09-13T06:34:42.966Z,10.07
2018-09-13T06:37:11.652Z,11.00
2018-09-13T06:39:40.290Z,11.50
2018-09-13T06:42:08.907Z,11.30
2018-09-13T06:44:37.567Z,12.17
2018-09-13T06:47:06.693Z,11.70
2018-09-13T06:49:35.440Z,11.50
2018-09-13T06:52:04.151Z,11.47
2018-09-13T06:54:32.823Z,10.70
2018-09-13T06:57:01.444Z,11.57
2018-09-13T06:59:30.597Z,11.60
2018-09-13T07:01:59.281Z,12.80
2018-09-13T07:04:28.025Z,12.70
2018-09-13T07:06:56.660Z,12.00
2018-09-13T07:09:25.320Z,13.10
2018-09-13T07:11:53.951Z,12.30
2018-09-13T07:14:22.683Z,12.67
2018-09-13T07:16:51.390Z,11.00
2018-09-13T07:19:20.031Z,10.87
2018-09-13T07:21:48.675Z,11.67
2018-09-13T07:24:17.500Z,11.23
2018-09-13T07:26:46.150Z,10.70
2018-09-13T07:29:14.796Z,10.97
2018-09-13T07:31:43.460Z,11.90
2018-09-13T07:34:12.154Z,10.67
2018-09-13T07:36:40.876Z,10.10
2018-09-13T07:39:11.435Z,10.03
2018-09-13T07:41:40.116Z,8.90
2018-09-13T07:44:08.852Z,9.47
2018-09-13T07:46:37.600Z,9.30
2018-09-13T07:49:06.478Z,9.40
2018-09-13T07:51:35.284Z,9.10
2018-09-13T07:54:04.082Z,9.57
2018-09-13T07:56:32.848Z,10.17
2018-09-13T07:59:01.477Z,10.07
2018-09-13T08:01:30.149Z,9.73
2018-09-13T08:03:58.917Z,10.70
2018-09-13T08:06:27.586Z,9.57
2018-09-13T08:08:56.325Z,8.50
2018-09-13T08:11:25.084Z,9.30
2018-09-13T08:13:53.808Z,9.37
2018-09-13T08:16:22.521Z,9.60
2018-09-13T08:18:51.195Z,9.60
2018-09-13T08:21:20.032Z,9.90
2018-09-13T08:23:48.627Z,9.53
2018-09-13T08:26:17.276Z,10.23
2018-09-13T08:28:45.906Z,8.70
2018-09-13T08:31:14.575Z,9.10
2018-09-13T08:33:43.296Z,8.77
2018-09-13T08:36:11.977Z,9.73
2018-09-13T08:38:41.177Z,9.03
2018-09-13T08:41:09.899Z,9.40
2018-09-13T08:43:38.617Z,8.87
2018-09-13T08:46:07.326Z,9.60
2018-09-13T08:48:36.024Z,10.37
2018-09-13T08:51:04.941Z,9.70
2018-09-13T08:53:33.710Z,10.40
2018-09-13T08:56:02.382Z,8.90
2018-09-13T08:58:31.049Z,9.27
2018-09-13T09:00:59.639Z,8.70
2018-09-13T09:03:28.223Z,11.47
2018-09-13T09:05:57.140Z,9.90
2018-09-13T09:08:25.731Z,8.20
2018-09-13T09:10:54.367Z,9.63
2018-09-13T09:13:22.999Z,9.90
2018-09-13T09:15:51.636Z,7.73
2018-09-13T09:18:20.277Z,8.17
2018-09-13T09:20:48.952Z,7.77
2018-09-13T09:23:17.553Z,8.40
2018-09-13T09:25:46.207Z,8.47
2018-09-13T09:28:14.850Z,8.73
2018-09-13T09:30:43.455Z,9.03
2018-09-13T09:33:12.031Z,8.73
2018-09-13T09:35:40.700Z,8.37
2018-09-13T09:38:09.384Z,9.40
2018-09-13T09:40:38.153Z,8.70
2018-09-13T09:43:07.070Z,8.17
2018-09-13T09:45:35.818Z,8.87
2018-09-13T09:48:04.535Z,7.70
2018-09-13T09:50:33.262Z,7.60
2018-09-13T09:53:02.066Z,7.80
2018-09-13T09:55:30.708Z,8.00
2018-09-13T09:57:59.558Z,7.83
2018-09-13T10:00:33.967Z,7.00
2018-09-13T10:03:02.787Z,7.57
2018-09-13T10:05:31.490Z,7.60
2018-09-13T10:08:00.204Z,8.20
2018-09-13T10:10:29.160Z,6.50
2018-09-13T10:12:58.022Z,7.17
2018-09-13T10:15:31.980Z,7.03
2018-09-13T10:18:05.961Z,6.77
2018-09-13T10:20:40.035Z,6.87
2018-09-13T10:25:17.828Z,6.60
2018-09-13T10:27:51.801Z,6.63
2018-09-13T10:30:25.734Z,6.80
2018-09-13T10:32:59.638Z,7.47
2018-09-13T10:35:33.853Z,6.87
2018-09-13T10:38:07.929Z,6.20
2018-09-13T10:40:42.022Z,6.13
2018-09-13T10:43:16.144Z,6.70
2018-09-13T10:47:56.928Z,6.63
2018-09-13T10:50:25.227Z,6.03
2018-09-13T10:52:58.998Z,7.00
2018-09-13T10:55:28.723Z,7.03
2018-09-13T10:57:57.343Z,6.23
2018-09-13T11:00:26.044Z,7.47
2018-09-13T11:02:54.768Z,5.77
2018-09-13T11:05:23.348Z,6.60
2018-09-13T11:07:51.907Z,6.37
2018-09-13T11:10:20.567Z,7.30
2018-09-13T11:12:54.410Z,6.33
2018-09-13T11:15:28.216Z,6.37
2018-09-13T11:17:56.885Z,6.53
2018-09-13T11:20:26.219Z,6.20
2018-09-13T11:22:55.550Z,6.50
2018-09-13T11:25:25.130Z,6.97
2018-09-13T11:27:54.278Z,7.30
2018-09-13T11:30:22.923Z,6.87
2018-09-13T11:32:51.594Z,5.90
2018-09-13T11:35:20.274Z,6.60
2018-09-13T11:37:48.860Z,6.80
2018-09-13T11:40:17.583Z,6.03
2018-09-13T11:42:46.193Z,6.37
2018-09-13T11:45:14.932Z,5.53
2018-09-13T11:47:43.578Z,5.83
2018-09-13T11:50:12.312Z,5.97
2018-09-13T11:52:40.955Z,6.10
2018-09-13T11:55:09.603Z,6.00
2018-09-13T11:57:38.325Z,5.80
2018-09-13T12:00:07.539Z,6.43
2018-09-13T12:02:36.248Z,6.30
2018-09-13T12:05:05.015Z,5.43
2018-09-13T12:07:33.715Z,6.07
2018-09-13T12:10:02.462Z,5.60
2018-09-13T12:12:31.091Z,5.70
2018-09-13T12:14:59.767Z,6.00
2018-09-13T12:17:28.475Z,6.10
2018-09-13T12:19:57.289Z,5.77
2018-09-13T12:22:25.992Z,5.80
2018-09-13T12:24:54.819Z,6.40
2018-09-13T12:27:23.682Z,5.97
2018-09-13T12:29:52.419Z,6.10
2018-09-13T12:32:24.212Z,6.03
2018-09-13T12:34:52.952Z,5.40
2018-09-13T12:37:21.657Z,5.57
2018-09-13T12:39:50.601Z,6.50
2018-09-13T12:42:19.273Z,6.27
2018-09-13T12:44:48.003Z,5.63
2018-09-13T12:47:16.763Z,5.67
2018-09-13T12:49:45.687Z,6.33
2018-09-13T12:52:14.711Z,5.40
2018-09-13T12:54:43.610Z,5.80
2018-09-13T12:57:12.769Z,6.20
2018-09-13T12:59:41.557Z,6.60
2018-09-13T13:02:10.361Z,6.00
2018-09-13T13:04:39.141Z,5.33
2018-09-13T13:07:07.992Z,5.80
2018-09-13T13:09:36.933Z,5.87
2018-09-13T13:12:05.828Z,5.50
2018-09-13T13:14:34.856Z,5.57
2018-09-13T13:17:03.825Z,5.57
2018-09-13T13:19:32.589Z,5.43
2018-09-13T13:22:01.477Z,5.80
2018-09-13T13:24:30.322Z,5.90
2018-09-13T13:26:59.121Z,5.80
2018-09-13T13:29:28.165Z,6.00
2018-09-13T13:31:57.094Z,6.10
2018-09-13T13:34:25.964Z,5.60
2018-09-13T13:36:55.060Z,6.13
2018-09-13T13:39:23.925Z,6.73
2018-09-13T13:41:52.610Z,6.37
2018-09-13T13:44:21.696Z,6.53
2018-09-13T13:46:50.645Z,5.87
2018-09-13T13:49:19.539Z,6.37
2018-09-13T13:51:48.492Z,7.07
2018-09-13T13:54:17.483Z,5.93
2018-09-13T13:56:46.360Z,5.63
2018-09-13T13:59:15.211Z,5.80
2018-09-13T14:01:43.899Z,6.93
2018-09-13T14:04:12.592Z,6.00
2018-09-13T14:06:41.377Z,7.00
2018-09-13T14:09:12.882Z,6.57
2018-09-13T14:11:41.704Z,6.73
2018-09-13T14:14:10.515Z,5.70
2018-09-13T14:16:39.614Z,6.63
2018-09-13T14:19:08.355Z,6.27
2018-09-13T14:21:37.375Z,6.07
2018-09-13T14:24:06.276Z,6.20
2018-09-13T14:26:35.190Z,6.30
2018-09-13T14:29:03.979Z,6.00
2018-09-13T14:31:33.002Z,5.87
2018-09-13T14:34:01.815Z,5.97
2018-09-13T14:36:30.686Z,5.20
2018-09-13T14:38:59.549Z,6.93
2018-09-13T14:41:28.252Z,5.00
2018-09-13T14:43:57.063Z,5.53
2018-09-13T14:46:26.045Z,4.80
2018-09-13T14:48:54.887Z,4.90
2018-09-13T14:51:23.699Z,5.20
2018-09-13T14:53:52.401Z,5.60
2018-09-13T14:56:21.253Z,4.87
2018-09-13T14:58:50.155Z,5.03
2018-09-13T15:01:19.080Z,5.20
2018-09-13T15:03:48.163Z,5.00
2018-09-13T15:06:17.096Z,5.27
2018-09-13T15:08:45.901Z,4.77
2018-09-13T15:11:14.844Z,4.80
2018-09-13T15:13:43.903Z,4.67
2018-09-13T15:16:12.876Z,4.87
2018-09-13T15:18:41.806Z,4.60
2018-09-13T15:21:10.679Z,4.20
2018-09-13T15:23:39.659Z,4.13
2018-09-13T15:26:08.716Z,4.47
2018-09-13T15:28:37.484Z,4.33
2018-09-13T15:31:06.558Z,3.00
2018-09-13T15:33:35.312Z,4.00
2018-09-13T15:36:04.177Z,3.80
2018-09-13T15:38:33.106Z,3.30
2018-09-13T15:41:02.072Z,4.30
2018-09-13T15:43:30.910Z,5.00
2018-09-13T15:45:59.864Z,4.30
2018-09-13T15:48:28.727Z,3.57
2018-09-13T15:50:57.606Z,3.57
2018-09-13T15:53:26.463Z,4.03
2018-09-13T15:55:55.241Z,4.40
2018-09-13T15:58:24.122Z,4.93
2018-09-13T16:00:52.861Z,5.10
2018-09-13T16:03:21.646Z,4.90
2018-09-13T16:05:50.531Z,4.60
2018-09-13T16:08:19.347Z,4.60
2018-09-13T16:10:48.268Z,4.97
2018-09-13T16:13:17.131Z,5.10
2018-09-13T16:15:45.876Z,4.87
2018-09-13T16:18:14.684Z,4.47
2018-09-13T16:20:44.873Z,4.43
2018-09-13T16:23:14.045Z,4.40
2018-09-13T16:25:43.868Z,5.00
2018-09-13T16:28:12.589Z,4.87
2018-09-13T16:30:41.360Z,4.73
2018-09-13T16:33:10.240Z,5.00
2018-09-13T16:35:46.710Z,4.30
2018-09-13T16:38:20.867Z,5.50
2018-09-13T16:40:55.054Z,5.70
2018-09-13T16:43:29.117Z,5.67
2018-09-13T16:45:58.098Z,5.83
2018-09-13T16:48:31.241Z,6.50
2018-09-13T16:51:00.115Z,6.10
2018-09-13T16:53:28.978Z,5.93
2018-09-13T16:55:57.676Z,5.83
2018-09-13T16:58:26.341Z,5.47
2018-09-13T17:00:55.158Z,5.70
2018-09-13T17:03:24.036Z,5.73
2018-09-13T17:05:52.924Z,5.90
2018-09-13T17:08:22.151Z,6.20
2018-09-13T17:10:50.885Z,6.33
2018-09-13T17:13:19.712Z,6.50
2018-09-13T17:15:48.632Z,6.20
2018-09-13T17:18:17.465Z,7.13
2018-09-13T17:20:46.347Z,6.93
2018-09-13T17:23:15.238Z,6.17
2018-09-13T17:25:44.089Z,6.20
2018-09-13T17:28:12.981Z,6.50
2018-09-13T17:30:41.764Z,6.67
2018-09-13T17:33:11.080Z,6.67
2018-09-13T17:35:40.068Z,6.90
2018-09-13T17:38:09.093Z,7.30
2018-09-13T17:40:38.092Z,6.63
2018-09-13T17:43:06.734Z,6.40
2018-09-13T17:45:38.335Z,7.43
2018-09-13T17:48:07.626Z,6.97
2018-09-13T17:50:37.779Z,7.73
2018-09-13T17:53:06.490Z,7.03
2018-09-13T17:55:38.736Z,7.33
2018-09-13T17:58:12.689Z,6.87
2018-09-13T18:00:42.285Z,6.87
2018-09-13T18:03:12.159Z,7.23
2018-09-13T18:05:41.062Z,8.17
2018-09-13T18:08:09.834Z,7.70
2018-09-13T18:10:38.627Z,7.33
2018-09-13T18:13:07.529Z,7.70
2018-09-13T18:15:36.267Z,7.60
2018-09-13T18:18:06.056Z,6.97
2018-09-13T18:20:34.775Z,7.03
2018-09-13T18:23:03.591Z,7.63
2018-09-13T18:25:32.228Z,8.23
2018-09-13T18:28:01.995Z,8.30
2018-09-13T18:30:31.707Z,7.57
2018-09-13T18:33:04.586Z,7.70
2018-09-13T18:35:34.843Z,8.73
2018-09-13T18:38:08.489Z,8.17
2018-09-13T18:40:39.729Z,9.90
2018-09-13T18:43:14.727Z,9.00
2018-09-13T18:45:51.063Z,8.00
2018-09-13T18:48:24.464Z,8.00
2018-09-13T18:50:59.433Z,7.40
2018-09-13T18:53:30.236Z,9.23
2018-09-13T18:56:02.879Z,8.17
2018-09-13T18:58:36.052Z,8.90
2018-09-13T19:01:08.850Z,8.67
2018-09-13T19:03:38.973Z,8.50
2018-09-13T19:06:11.580Z,8.13
2018-09-13T19:08:46.681Z,8.67
2018-09-13T19:11:18.476Z,9.10
2018-09-13T19:13:52.045Z,8.87
2018-09-13T19:16:25.232Z,9.40
2018-09-13T19:18:58.383Z,8.97
2018-09-13T19:21:31.126Z,8.70
2018-09-13T19:24:04.528Z,8.90
2018-09-13T19:26:38.022Z,9.20
2018-09-13T19:29:11.592Z,9.30
2018-09-13T19:31:45.627Z,10.37
2018-09-13T19:34:15.096Z,9.50
2018-09-13T19:36:44.781Z,9.20
2018-09-13T19:39:14.266Z,10.10
2018-09-13T19:41:44.230Z,9.30
2018-09-13T19:44:13.370Z,9.00
2018-09-13T19:46:42.315Z,8.60
2018-09-13T19:49:11.308Z,9.40
2018-09-13T19:51:40.440Z,9.70
2018-09-13T19:54:09.409Z,9.53
2018-09-13T19:56:38.426Z,9.23
2018-09-13T19:59:07.465Z,9.70
2018-09-13T20:01:36.448Z,9.30
2018-09-13T20:04:06.570Z,10.27
2018-09-13T20:06:35.556Z,9.43
2018-09-13T20:09:06.690Z,9.20
2018-09-13T20:11:35.729Z,8.63
2018-09-13T20:14:04.732Z,8.20
2018-09-13T20:16:33.670Z,9.57
2018-09-13T20:19:02.764Z,10.50
2018-09-13T20:21:31.724Z,8.90
2018-09-13T20:24:02.218Z,8.50
2018-09-13T20:26:31.283Z,9.10
2018-09-13T20:29:00.528Z,9.70
2018-09-13T20:31:29.413Z,9.43
2018-09-13T20:33:58.352Z,10.87
2018-09-13T20:36:27.303Z,9.97
2018-09-13T20:38:56.358Z,10.10
2018-09-13T20:41:25.362Z,9.97
2018-09-13T20:43:54.287Z,9.53
2018-09-13T20:46:23.193Z,9.83
2018-09-13T20:48:52.140Z,9.77
2018-09-13T20:51:21.044Z,8.60
2018-09-13T20:53:50.096Z,9.63
2018-09-13T20:56:19.865Z,9.77
2018-09-13T20:58:49.504Z,9.27
2018-09-13T21:01:18.339Z,9.10
2018-09-13T21:03:47.691Z,9.97
2018-09-13T21:06:16.580Z,9.70
2018-09-13T21:08:45.652Z,9.70
2018-09-13T21:11:14.392Z,9.83
2018-09-13T21:13:43.408Z,10.93
2018-09-13T21:16:12.185Z,9.80
2018-09-13T21:18:41.083Z,9.97
2018-09-13T21:21:09.927Z,10.90
2018-09-13T21:23:38.825Z,10.47
2018-09-13T21:26:07.717Z,10.77
2018-09-13T21:28:36.643Z,10.20
2018-09-13T21:31:06.576Z,10.03
2018-09-13T21:33:38.838Z,9.30
2018-09-13T21:36:10.474Z,10.63
2018-09-13T21:38:40.730Z,10.90
2018-09-13T21:41:11.070Z,11.23
2018-09-13T21:43:43.066Z,10.83
2018-09-13T21:46:14.803Z,10.87
2018-09-13T21:48:45.947Z,10.00
2018-09-13T21:51:18.176Z,11.20
2018-09-13T21:53:52.433Z,11.87
2018-09-13T21:56:24.885Z,11.17
2018-09-13T21:58:57.602Z,9.70
2018-09-13T22:01:30.942Z,9.80
2018-09-13T22:04:02.587Z,9.13
2018-09-13T22:06:32.604Z,9.83
2018-09-13T22:09:08.532Z,10.97
2018-09-13T22:11:43.254Z,10.60
2018-09-13T22:14:15.097Z,10.00
2018-09-13T22:16:46.377Z,10.67
2018-09-13T22:19:18.436Z,9.87
2018-09-13T22:21:52.494Z,10.90
2018-09-13T22:24:21.187Z,10.80
2018-09-13T22:26:49.816Z,11.30
2018-09-13T22:29:18.422Z,10.13
2018-09-13T22:31:46.962Z,10.60
2018-09-13T22:34:15.581Z,9.50
2018-09-13T22:36:44.130Z,10.20
2018-09-13T22:39:12.743Z,8.70
2018-09-13T22:41:41.296Z,9.60
2018-09-13T22:44:09.923Z,9.90
2018-09-13T22:46:38.529Z,10.70
2018-09-13T22:49:07.178Z,10.40
2018-09-13T22:51:35.778Z,10.43
2018-09-13T22:54:04.472Z,9.83
2018-09-13T22:56:33.057Z,10.57
2018-09-13T22:59:01.712Z,10.23
2018-09-13T23:01:30.319Z,9.13
2018-09-13T23:03:58.888Z,10.27
2018-09-13T23:06:27.440Z,9.47
2018-09-13T23:08:56.046Z,11.40
2018-09-13T23:11:24.616Z,12.17
2018-09-13T23:13:53.237Z,10.57
2018-09-13T23:16:21.803Z,11.77
2018-09-13T23:18:50.454Z,11.23
2018-09-13T23:21:19.091Z,10.37
2018-09-13T23:23:47.679Z,10.50
2018-09-13T23:26:16.231Z,10.27
2018-09-13T23:28:44.832Z,10.63
2018-09-13T23:31:13.398Z,10.77
2018-09-13T23:33:41.986Z,10.50
2018-09-13T23:36:10.588Z,11.33
2018-09-13T23:38:39.249Z,10.70
2018-09-13T23:41:07.866Z,11.83
2018-09-13T23:43:36.452Z,10.77
2018-09-13T23:46:05.104Z,11.07
2018-09-13T23:48:33.872Z,10.80
2018-09-13T23:51:02.892Z,10.53
2018-09-13T23:53:31.529Z,11.03
2018-09-13T23:56:00.172Z,11.43
2018-09-13T23:58:28.800Z,10.53
